sensor_id;sensor_type;location;lat;lon;timestamp;pressure;altitude;pressure_sealevel;temperature;humidity
6030;BME280;3043;42.682;23.376;2023-01-20T00:00:49;93953.31;;;8.29;100.00
6030;BME280;3043;42.682;23.376;2023-01-20T00:03:14;93938.06;;;8.21;100.00
6030;BME280;3043;42.682;23.376;2023-01-20T00:05:49;93964.72;;;8.20;100.00
6030;BME280;3043;42.682;23.376;2023-01-20T00:08:15;93985.09;;;8.29;100.00
6030;BME280;3043;42.682;23.376;2023-01-20T00:10:41;93981.72;;;8.27;100.00
6030;BME280;3043;42.682;23.376;2023-01-20T00:13:06;93981.81;;;8.24;100.00
6030;BME280;3043;42.682;23.376;2023-01-20T00:15:31;93974.78;;;8.29;100.00
6030;BME280;3043;42.682;23.376;2023-01-20T00:17:57;93985.78;;;8.34;100.00
6030;BME280;3043;42.682;23.376;2023-01-20T00:20:22;93997.19;;;8.27;100.00
6030;BME280;3043;42.682;23.376;2023-01-20T00:22:48;93964.06;;;8.41;100.00
6030;BME280;3043;42.682;23.376;2023-01-20T00:25:13;93913.81;;;8.77;100.00
6030;BME280;3043;42.682;23.376;2023-01-20T00:27:39;93793.81;;;8.44;100.00
6030;BME280;3043;42.682;23.376;2023-01-20T00:30:05;93809.03;;;8.01;100.00
6030;BME280;3043;42.682;23.376;2023-01-20T00:32:38;93823.31;;;7.85;100.00
6030;BME280;3043;42.682;23.376;2023-01-20T00:35:09;93824.59;;;7.72;100.00
6030;BME280;3043;42.682;23.376;2023-01-20T00:37:34;93828.22;;;7.67;100.00
6030;BME280;3043;42.682;23.376;2023-01-20T00:40:00;93818.06;;;7.62;100.00
6030;BME280;3043;42.682;23.376;2023-01-20T00:42:25;93790.66;;;7.60;100.00
6030;BME280;3043;42.682;23.376;2023-01-20T00:44:51;93774.28;;;7.62;100.00
6030;BME280;3043;42.682;23.376;2023-01-20T00:47:16;93780.91;;;7.69;100.00
6030;BME280;3043;42.682;23.376;2023-01-20T00:49:41;93792.16;;;7.67;100.00
6030;BME280;3043;42.682;23.376;2023-01-20T00:52:07;93783.34;;;7.74;100.00
6030;BME280;3043;42.682;23.376;2023-01-20T00:54:32;93786.81;;;7.73;100.00
6030;BME280;3043;42.682;23.376;2023-01-20T00:56:57;93785.00;;;7.76;100.00
6030;BME280;3043;42.682;23.376;2023-01-20T00:59:23;93784.88;;;7.79;100.00
6030;BME280;3043;42.682;23.376;2023-01-20T01:01:48;93794.19;;;7.83;100.00
6030;BME280;3043;42.682;23.376;2023-01-20T01:04:14;93807.00;;;7.85;100.00
6030;BME280;3043;42.682;23.376;2023-01-20T01:06:39;93781.22;;;7.86;100.00
6030;BME280;3043;42.682;23.376;2023-01-20T01:09:05;93780.19;;;7.90;100.00
6030;BME280;3043;42.682;23.376;2023-01-20T01:11:30;93791.25;;;7.94;100.00
6030;BME280;3043;42.682;23.376;2023-01-20T01:13:55;93788.53;;;7.98;100.00
6030;BME280;3043;42.682;23.376;2023-01-20T01:16:24;93784.81;;;8.05;100.00
6030;BME280;3043;42.682;23.376;2023-01-20T01:18:52;93789.56;;;8.17;100.00
6030;BME280;3043;42.682;23.376;2023-01-20T01:21:17;93792.75;;;8.25;100.00
6030;BME280;3043;42.682;23.376;2023-01-20T01:23:43;93784.81;;;8.31;100.00
6030;BME280;3043;42.682;23.376;2023-01-20T01:26:09;93797.59;;;8.34;100.00
6030;BME280;3043;42.682;23.376;2023-01-20T01:28:35;93788.13;;;8.35;100.00
6030;BME280;3043;42.682;23.376;2023-01-20T01:31:02;93787.28;;;8.34;100.00
6030;BME280;3043;42.682;23.376;2023-01-20T01:33:28;93776.97;;;8.34;100.00
6030;BME280;3043;42.682;23.376;2023-01-20T01:35:55;93749.28;;;8.39;100.00
6030;BME280;3043;42.682;23.376;2023-01-20T01:38:21;93768.94;;;8.42;100.00
6030;BME280;3043;42.682;23.376;2023-01-20T01:40:48;93766.09;;;8.49;100.00
6030;BME280;3043;42.682;23.376;2023-01-20T01:43:27;93757.38;;;8.53;100.00
6030;BME280;3043;42.682;23.376;2023-01-20T01:45:53;93771.03;;;8.55;100.00
6030;BME280;3043;42.682;23.376;2023-01-20T01:48:45;93782.94;;;8.59;100.00
6030;BME280;3043;42.682;23.376;2023-01-20T01:51:12;93791.78;;;8.52;100.00
6030;BME280;3043;42.682;23.376;2023-01-20T01:53:42;93800.53;;;8.48;100.00
6030;BME280;3043;42.682;23.376;2023-01-20T01:56:10;93792.09;;;8.43;100.00
6030;BME280;3043;42.682;23.376;2023-01-20T01:58:41;93799.19;;;8.38;100.00
6030;BME280;3043;42.682;23.376;2023-01-20T02:01:09;93789.09;;;8.32;100.00
6030;BME280;3043;42.682;23.376;2023-01-20T02:03:52;93770.13;;;8.33;100.00
6030;BME280;3043;42.682;23.376;2023-01-20T02:06:21;93777.19;;;8.28;100.00
6030;BME280;3043;42.682;23.376;2023-01-20T02:08:49;93789.91;;;8.33;100.00
6030;BME280;3043;42.682;23.376;2023-01-20T02:11:15;93782.28;;;8.30;100.00
6030;BME280;3043;42.682;23.376;2023-01-20T02:13:40;93775.81;;;8.18;100.00
6030;BME280;3043;42.682;23.376;2023-01-20T02:21:57;93752.88;;;8.11;100.00
6030;BME280;3043;42.682;23.376;2023-01-20T02:27:13;93740.16;;;8.06;100.00
6030;BME280;3043;42.682;23.376;2023-01-20T02:35:41;93724.81;;;8.03;100.00
6030;BME280;3043;42.682;23.376;2023-01-20T02:43:30;93708.91;;;8.15;100.00
6030;BME280;3043;42.682;23.376;2023-01-20T02:46:25;93703.44;;;8.24;100.00
6030;BME280;3043;42.682;23.376;2023-01-20T02:49:09;93689.66;;;8.25;100.00
6030;BME280;3043;42.682;23.376;2023-01-20T02:54:41;93694.47;;;8.34;100.00
6030;BME280;3043;42.682;23.376;2023-01-20T02:57:13;93703.84;;;8.37;100.00
6030;BME280;3043;42.682;23.376;2023-01-20T02:59:42;93708.91;;;8.40;100.00
6030;BME280;3043;42.682;23.376;2023-01-20T03:02:14;93685.53;;;8.44;100.00
6030;BME280;3043;42.682;23.376;2023-01-20T03:05:17;93697.28;;;8.51;100.00
6030;BME280;3043;42.682;23.376;2023-01-20T03:07:47;93700.66;;;8.53;100.00
6030;BME280;3043;42.682;23.376;2023-01-20T03:10:16;93703.41;;;8.49;100.00
6030;BME280;3043;42.682;23.376;2023-01-20T03:12:51;93710.06;;;8.54;100.00
6030;BME280;3043;42.682;23.376;2023-01-20T03:15:31;93710.06;;;8.54;100.00
6030;BME280;3043;42.682;23.376;2023-01-20T03:17:59;93704.22;;;8.49;100.00
6030;BME280;3043;42.682;23.376;2023-01-20T03:20:25;93700.75;;;8.50;100.00
6030;BME280;3043;42.682;23.376;2023-01-20T03:22:50;93697.50;;;8.45;100.00
6030;BME280;3043;42.682;23.376;2023-01-20T03:25:18;93703.56;;;8.44;100.00
6030;BME280;3043;42.682;23.376;2023-01-20T03:27:44;93690.78;;;8.41;100.00
6030;BME280;3043;42.682;23.376;2023-01-20T03:30:15;93696.59;;;8.46;100.00
6030;BME280;3043;42.682;23.376;2023-01-20T03:32:47;93699.28;;;8.43;100.00
6030;BME280;3043;42.682;23.376;2023-01-20T03:35:14;93694.25;;;8.40;100.00
6030;BME280;3043;42.682;23.376;2023-01-20T03:37:41;93697.63;;;8.42;100.00
6030;BME280;3043;42.682;23.376;2023-01-20T03:40:08;93703.22;;;8.30;100.00
6030;BME280;3043;42.682;23.376;2023-01-20T03:42:42;93688.91;;;8.22;100.00
6030;BME280;3043;42.682;23.376;2023-01-20T03:45:21;93700.72;;;8.04;100.00
6030;BME280;3043;42.682;23.376;2023-01-20T03:50:43;93686.91;;;8.05;100.00
6030;BME280;3043;42.682;23.376;2023-01-20T03:56:08;93670.63;;;8.29;100.00
6030;BME280;3043;42.682;23.376;2023-01-20T03:58:40;93651.06;;;8.24;100.00
6030;BME280;3043;42.682;23.376;2023-01-20T04:01:09;93655.97;;;8.30;100.00
6030;BME280;3043;42.682;23.376;2023-01-20T04:03:38;93660.44;;;8.26;100.00
6030;BME280;3043;42.682;23.376;2023-01-20T04:06:06;93648.41;;;8.25;100.00
6030;BME280;3043;42.682;23.376;2023-01-20T04:08:36;93651.91;;;8.24;100.00
6030;BME280;3043;42.682;23.376;2023-01-20T04:11:05;93651.06;;;8.24;100.00
6030;BME280;3043;42.682;23.376;2023-01-20T04:13:32;93639.97;;;8.20;100.00
6030;BME280;3043;42.682;23.376;2023-01-20T04:15:58;93634.19;;;8.15;100.00
6030;BME280;3043;42.682;23.376;2023-01-20T04:18:24;93636.44;;;8.24;100.00
6030;BME280;3043;42.682;23.376;2023-01-20T04:21:28;93637.41;;;8.20;100.00
6030;BME280;3043;42.682;23.376;2023-01-20T04:26:50;93610.25;;;8.12;100.00
6030;BME280;3043;42.682;23.376;2023-01-20T04:29:15;93606.06;;;8.09;100.00
6030;BME280;3043;42.682;23.376;2023-01-20T04:31:41;93602.69;;;8.07;100.00
6030;BME280;3043;42.682;23.376;2023-01-20T04:34:06;93612.09;;;8.08;100.00
6030;BME280;3043;42.682;23.376;2023-01-20T04:36:33;93611.22;;;8.09;100.00
6030;BME280;3043;42.682;23.376;2023-01-20T04:38:59;93603.44;;;8.11;100.00
6030;BME280;3043;42.682;23.376;2023-01-20T04:41:24;93594.66;;;8.15;100.00
6030;BME280;3043;42.682;23.376;2023-01-20T04:43:50;93589.81;;;8.07;100.00
6030;BME280;3043;42.682;23.376;2023-01-20T04:46:15;93606.41;;;8.00;100.00
6030;BME280;3043;42.682;23.376;2023-01-20T04:48:42;93612.44;;;8.22;100.00
6030;BME280;3043;42.682;23.376;2023-01-20T04:51:08;93607.91;;;8.29;100.00
6030;BME280;3043;42.682;23.376;2023-01-20T04:53:33;93608.78;;;8.29;100.00
6030;BME280;3043;42.682;23.376;2023-01-20T04:55:59;93611.00;;;8.38;100.00
6030;BME280;3043;42.682;23.376;2023-01-20T04:58:24;93602.91;;;8.47;100.00
6030;BME280;3043;42.682;23.376;2023-01-20T05:00:50;93613.22;;;8.47;100.00
6030;BME280;3043;42.682;23.376;2023-01-20T05:03:15;93593.59;;;8.43;100.00
6030;BME280;3043;42.682;23.376;2023-01-20T05:05:41;93611.16;;;8.55;100.00
6030;BME280;3043;42.682;23.376;2023-01-20T05:08:06;93620.47;;;8.59;100.00
6030;BME280;3043;42.682;23.376;2023-01-20T05:10:32;93633.97;;;8.44;100.00
6030;BME280;3043;42.682;23.376;2023-01-20T05:12:59;93642.56;;;8.43;100.00
6030;BME280;3043;42.682;23.376;2023-01-20T05:15:25;93639.97;;;8.66;100.00
6030;BME280;3043;42.682;23.376;2023-01-20T05:17:50;93640.56;;;8.73;100.00
6030;BME280;3043;42.682;23.376;2023-01-20T05:20:16;93624.50;;;8.66;100.00
6030;BME280;3043;42.682;23.376;2023-01-20T05:22:43;93627.84;;;8.68;100.00
6030;BME280;3043;42.682;23.376;2023-01-20T05:25:08;93626.94;;;8.69;100.00
6030;BME280;3043;42.682;23.376;2023-01-20T05:27:35;93635.06;;;8.82;100.00
6030;BME280;3043;42.682;23.376;2023-01-20T05:30:02;93646.91;;;8.64;100.00
6030;BME280;3043;42.682;23.376;2023-01-20T05:32:28;93648.72;;;8.62;100.00
6030;BME280;3043;42.682;23.376;2023-01-20T05:34:53;93662.72;;;8.55;100.00
6030;BME280;3043;42.682;23.376;2023-01-20T05:37:18;93661.84;;;8.56;100.00
6030;BME280;3043;42.682;23.376;2023-01-20T05:39:44;93666.56;;;8.45;100.00
6030;BME280;3043;42.682;23.376;2023-01-20T05:42:10;93662.84;;;8.52;100.00
6030;BME280;3043;42.682;23.376;2023-01-20T05:44:35;93663.66;;;8.54;100.00
6030;BME280;3043;42.682;23.376;2023-01-20T05:47:01;93678.16;;;8.57;100.00
6030;BME280;3043;42.682;23.376;2023-01-20T05:49:26;93676.53;;;8.54;100.00
6030;BME280;3043;42.682;23.376;2023-01-20T05:51:52;93665.53;;;8.49;100.00
6030;BME280;3043;42.682;23.376;2023-01-20T05:54:18;93666.09;;;8.57;100.00
6030;BME280;3043;42.682;23.376;2023-01-20T05:56:43;93660.94;;;8.57;100.00
6030;BME280;3043;42.682;23.376;2023-01-20T05:59:08;93637.81;;;8.77;100.00
6030;BME280;3043;42.682;23.376;2023-01-20T06:01:34;93626.16;;;8.89;100.00
6030;BME280;3043;42.682;23.376;2023-01-20T06:04:00;93630.88;;;8.79;100.00
6030;BME280;3043;42.682;23.376;2023-01-20T06:06:25;93642.84;;;8.80;100.00
6030;BME280;3043;42.682;23.376;2023-01-20T06:08:51;93638.41;;;8.62;100.00
6030;BME280;3043;42.682;23.376;2023-01-20T06:11:18;93652.97;;;8.63;100.00
6030;BME280;3043;42.682;23.376;2023-01-20T06:13:46;93671.28;;;8.79;100.00
6030;BME280;3043;42.682;23.376;2023-01-20T06:16:12;93665.03;;;8.84;100.00
6030;BME280;3043;42.682;23.376;2023-01-20T06:18:38;93668.03;;;8.95;100.00
6030;BME280;3043;42.682;23.376;2023-01-20T06:21:04;93664.31;;;9.02;100.00
6030;BME280;3043;42.682;23.376;2023-01-20T06:23:29;93650.16;;;8.91;100.00
6030;BME280;3043;42.682;23.376;2023-01-20T06:25:58;93672.13;;;8.79;100.00
6030;BME280;3043;42.682;23.376;2023-01-20T06:28:24;93669.00;;;8.93;100.00
6030;BME280;3043;42.682;23.376;2023-01-20T06:30:49;93671.88;;;9.07;100.00
6030;BME280;3043;42.682;23.376;2023-01-20T06:33:15;93681.38;;;9.07;100.00
6030;BME280;3043;42.682;23.376;2023-01-20T06:35:40;93685.69;;;8.84;100.00
6030;BME280;3043;42.682;23.376;2023-01-20T06:38:06;93664.56;;;8.96;100.00
6030;BME280;3043;42.682;23.376;2023-01-20T06:40:31;93661.97;;;9.18;100.00
6030;BME280;3043;42.682;23.376;2023-01-20T06:42:57;93668.50;;;9.27;100.00
6030;BME280;3043;42.682;23.376;2023-01-20T06:45:22;93627.44;;;9.00;100.00
6030;BME280;3043;42.682;23.376;2023-01-20T06:47:48;93620.66;;;8.76;100.00
6030;BME280;3043;42.682;23.376;2023-01-20T06:50:15;93616.56;;;8.49;100.00
6030;BME280;3043;42.682;23.376;2023-01-20T06:52:40;93624.13;;;8.32;100.00
6030;BME280;3043;42.682;23.376;2023-01-20T06:55:06;93623.56;;;8.24;100.00
6030;BME280;3043;42.682;23.376;2023-01-20T06:57:31;93617.59;;;8.22;100.00
6030;BME280;3043;42.682;23.376;2023-01-20T06:59:57;93616.19;;;8.14;100.00
6030;BME280;3043;42.682;23.376;2023-01-20T07:02:23;93617.13;;;8.11;100.00
6030;BME280;3043;42.682;23.376;2023-01-20T07:04:50;93623.75;;;7.95;100.00
6030;BME280;3043;42.682;23.376;2023-01-20T07:07:16;93630.34;;;8.02;100.00
6030;BME280;3043;42.682;23.376;2023-01-20T07:09:41;93621.75;;;8.03;100.00
6030;BME280;3043;42.682;23.376;2023-01-20T07:12:07;93629.53;;;8.02;100.00
6030;BME280;3043;42.682;23.376;2023-01-20T07:14:32;93621.72;;;8.28;100.00
6030;BME280;3043;42.682;23.376;2023-01-20T07:16:58;93625.06;;;8.30;100.00
6030;BME280;3043;42.682;23.376;2023-01-20T07:19:23;93594.06;;;8.31;100.00
6030;BME280;3043;42.682;23.376;2023-01-20T07:21:48;93608.19;;;8.44;100.00
6030;BME280;3043;42.682;23.376;2023-01-20T07:24:14;93611.53;;;8.46;100.00
6030;BME280;3043;42.682;23.376;2023-01-20T07:26:39;93609.38;;;8.57;100.00
6030;BME280;3043;42.682;23.376;2023-01-20T07:29:05;93615.47;;;8.33;100.00
6030;BME280;3043;42.682;23.376;2023-01-20T07:31:30;93637.66;;;8.37;100.00
6030;BME280;3043;42.682;23.376;2023-01-20T07:33:56;93628.38;;;8.33;100.00
6030;BME280;3043;42.682;23.376;2023-01-20T07:36:22;93622.78;;;8.44;100.00
6030;BME280;3043;42.682;23.376;2023-01-20T07:38:49;93613.41;;;8.43;100.00
6030;BME280;3043;42.682;23.376;2023-01-20T07:41:15;93620.03;;;8.48;100.00
6030;BME280;3043;42.682;23.376;2023-01-20T07:43:43;93626.88;;;8.49;100.00
6030;BME280;3043;42.682;23.376;2023-01-20T07:46:09;93617.41;;;8.71;100.00
6030;BME280;3043;42.682;23.376;2023-01-20T07:48:35;93618.53;;;8.86;100.00
6030;BME280;3043;42.682;23.376;2023-01-20T07:51:03;93613.06;;;8.93;100.00
6030;BME280;3043;42.682;23.376;2023-01-20T07:53:40;93621.47;;;8.98;100.00
6030;BME280;3043;42.682;23.376;2023-01-20T07:56:09;93622.66;;;9.12;100.00
6030;BME280;3043;42.682;23.376;2023-01-20T07:58:35;93633.34;;;9.02;100.00
6030;BME280;3043;42.682;23.376;2023-01-20T08:01:13;93634.91;;;9.07;100.00
6030;BME280;3043;42.682;23.376;2023-01-20T08:03:39;93631.97;;;9.16;100.00
6030;BME280;3043;42.682;23.376;2023-01-20T08:06:07;93638.06;;;9.13;100.00
6030;BME280;3043;42.682;23.376;2023-01-20T08:08:33;93622.41;;;9.18;100.00
6030;BME280;3043;42.682;23.376;2023-01-20T08:10:59;93640.97;;;9.05;100.00
6030;BME280;3043;42.682;23.376;2023-01-20T08:13:26;93619.03;;;8.95;100.00
6030;BME280;3043;42.682;23.376;2023-01-20T08:15:51;93596.16;;;8.86;100.00
6030;BME280;3043;42.682;23.376;2023-01-20T08:18:17;93576.03;;;8.74;100.00
6030;BME280;3043;42.682;23.376;2023-01-20T08:20:42;93556.25;;;8.53;100.00
6030;BME280;3043;42.682;23.376;2023-01-20T08:23:07;93540.41;;;8.41;100.00
6030;BME280;3043;42.682;23.376;2023-01-20T08:25:33;93560.69;;;8.28;100.00
6030;BME280;3043;42.682;23.376;2023-01-20T08:27:58;93570.00;;;8.32;100.00
6030;BME280;3043;42.682;23.376;2023-01-20T08:30:24;93576.75;;;8.35;100.00
6030;BME280;3043;42.682;23.376;2023-01-20T08:32:49;93574.22;;;8.33;100.00
6030;BME280;3043;42.682;23.376;2023-01-20T08:35:15;93580.69;;;8.43;100.00
6030;BME280;3043;42.682;23.376;2023-01-20T08:37:40;93560.44;;;8.56;100.00
6030;BME280;3043;42.682;23.376;2023-01-20T08:40:08;93563.75;;;8.59;100.00
6030;BME280;3043;42.682;23.376;2023-01-20T08:42:35;93552.03;;;8.72;100.00
6030;BME280;3043;42.682;23.376;2023-01-20T08:45:02;93536.16;;;8.81;100.00
6030;BME280;3043;42.682;23.376;2023-01-20T08:47:28;93546.25;;;8.87;100.00
6030;BME280;3043;42.682;23.376;2023-01-20T08:49:53;93547.56;;;8.97;100.00
6030;BME280;3043;42.682;23.376;2023-01-20T08:52:19;93543.81;;;9.04;100.00
6030;BME280;3043;42.682;23.376;2023-01-20T08:54:44;93553.63;;;9.17;100.00
6030;BME280;3043;42.682;23.376;2023-01-20T08:57:10;93546.41;;;9.25;100.00
6030;BME280;3043;42.682;23.376;2023-01-20T08:59:35;93550.78;;;9.43;100.00
6030;BME280;3043;42.682;23.376;2023-01-20T09:02:01;93540.81;;;9.54;100.00
6030;BME280;3043;42.682;23.376;2023-01-20T09:04:26;93547.47;;;9.59;100.00
6030;BME280;3043;42.682;23.376;2023-01-20T09:06:52;93560.03;;;9.67;100.00
6030;BME280;3043;42.682;23.376;2023-01-20T09:09:20;93572.31;;;9.62;100.00
6030;BME280;3043;42.682;23.376;2023-01-20T09:11:45;93559.38;;;9.62;100.00
6030;BME280;3043;42.682;23.376;2023-01-20T09:14:19;93552.75;;;9.56;100.00
6030;BME280;3043;42.682;23.376;2023-01-20T09:16:44;93554.41;;;9.39;100.00
6030;BME280;3043;42.682;23.376;2023-01-20T09:19:10;93570.28;;;9.30;100.00
6030;BME280;3043;42.682;23.376;2023-01-20T09:21:35;93556.59;;;9.28;100.00
6030;BME280;3043;42.682;23.376;2023-01-20T09:24:01;93558.00;;;9.35;100.00
6030;BME280;3043;42.682;23.376;2023-01-20T09:26:26;93554.28;;;9.42;100.00
6030;BME280;3043;42.682;23.376;2023-01-20T09:28:58;93553.03;;;9.50;100.00
6030;BME280;3043;42.682;23.376;2023-01-20T09:31:34;93547.63;;;9.75;100.00
6030;BME280;3043;42.682;23.376;2023-01-20T09:34:00;93557.81;;;9.78;100.00
6030;BME280;3043;42.682;23.376;2023-01-20T09:36:26;93553.78;;;9.91;100.00
6030;BME280;3043;42.682;23.376;2023-01-20T09:38:55;93557.13;;;9.93;100.00
6030;BME280;3043;42.682;23.376;2023-01-20T09:41:42;93543.72;;;10.03;100.00
6030;BME280;3043;42.682;23.376;2023-01-20T09:50:16;93538.28;;;9.91;100.00
6030;BME280;3043;42.682;23.376;2023-01-20T09:53:09;93539.97;;;9.92;100.00
6030;BME280;3043;42.682;23.376;2023-01-20T09:55:50;93522.41;;;9.98;100.00
6030;BME280;3043;42.682;23.376;2023-01-20T10:03:54;93498.78;;;10.78;100.00
6030;BME280;3043;42.682;23.376;2023-01-20T10:06:34;93509.53;;;11.55;100.00
6030;BME280;3043;42.682;23.376;2023-01-20T10:09:25;93519.28;;;11.99;100.00
6030;BME280;3043;42.682;23.376;2023-01-20T10:12:36;93516.88;;;12.12;100.00
6030;BME280;3043;42.682;23.376;2023-01-20T10:15:36;93503.81;;;12.60;100.00
6030;BME280;3043;42.682;23.376;2023-01-20T10:21:16;93463.94;;;13.50;100.00
6030;BME280;3043;42.682;23.376;2023-01-20T10:23:33;93476.19;;;13.76;100.00
6030;BME280;3043;42.682;23.376;2023-01-20T10:26:07;93480.84;;;13.71;100.00
6030;BME280;3043;42.682;23.376;2023-01-20T10:28:38;93494.94;;;13.53;100.00
6030;BME280;3043;42.682;23.376;2023-01-20T10:31:05;93496.22;;;13.32;100.00
6030;BME280;3043;42.682;23.376;2023-01-20T10:33:39;93499.88;;;13.28;100.00
6030;BME280;3043;42.682;23.376;2023-01-20T10:36:11;93507.19;;;13.51;100.00
6030;BME280;3043;42.682;23.376;2023-01-20T10:41:44;93499.00;;;12.84;100.00
6030;BME280;3043;42.682;23.376;2023-01-20T10:44:05;93498.41;;;12.33;100.00
6030;BME280;3043;42.682;23.376;2023-01-20T10:49:45;93499.69;;;11.61;100.00
6030;BME280;3043;42.682;23.376;2023-01-20T10:57:33;93500.91;;;11.71;100.00
6030;BME280;3043;42.682;23.376;2023-01-20T11:00:01;93490.66;;;11.85;100.00
6030;BME280;3043;42.682;23.376;2023-01-20T11:02:31;93468.00;;;11.89;100.00
6030;BME280;3043;42.682;23.376;2023-01-20T11:05:13;93472.13;;;12.08;100.00
6030;BME280;3043;42.682;23.376;2023-01-20T11:07:41;93471.44;;;11.89;100.00
6030;BME280;3043;42.682;23.376;2023-01-20T11:10:24;93477.59;;;11.87;100.00
6030;BME280;3043;42.682;23.376;2023-01-20T11:12:53;93481.22;;;11.84;100.00
6030;BME280;3043;42.682;23.376;2023-01-20T11:15:28;93482.59;;;11.74;100.00
6030;BME280;3043;42.682;23.376;2023-01-20T11:20:45;93491.47;;;11.70;100.00
6030;BME280;3043;42.682;23.376;2023-01-20T11:26:26;93476.59;;;11.24;100.00
6030;BME280;3043;42.682;23.376;2023-01-20T11:29:01;93474.00;;;11.24;100.00
6030;BME280;3043;42.682;23.376;2023-01-20T11:34:29;93492.41;;;11.52;100.00
6030;BME280;3043;42.682;23.376;2023-01-20T11:39:43;93484.34;;;11.41;100.00
6030;BME280;3043;42.682;23.376;2023-01-20T11:44:41;93466.97;;;11.43;100.00
6030;BME280;3043;42.682;23.376;2023-01-20T11:47:16;93480.41;;;11.17;100.00
6030;BME280;3043;42.682;23.376;2023-01-20T11:49:44;93473.25;;;10.88;100.00
6030;BME280;3043;42.682;23.376;2023-01-20T11:52:19;93465.97;;;10.96;100.00
6030;BME280;3043;42.682;23.376;2023-01-20T11:54:45;93461.25;;;10.87;100.00
6030;BME280;3043;42.682;23.376;2023-01-20T11:57:15;93460.00;;;10.77;100.00
6030;BME280;3043;42.682;23.376;2023-01-20T11:59:48;93466.69;;;10.47;100.00
6030;BME280;3043;42.682;23.376;2023-01-20T12:04:53;93483.53;;;9.05;100.00
6030;BME280;3043;42.682;23.376;2023-01-20T12:07:30;93477.09;;;8.55;100.00
6030;BME280;3043;42.682;23.376;2023-01-20T12:10:03;93476.94;;;8.38;100.00
6030;BME280;3043;42.682;23.376;2023-01-20T12:12:40;93494.13;;;8.16;100.00
6030;BME280;3043;42.682;23.376;2023-01-20T12:15:27;93487.72;;;7.60;100.00
6030;BME280;3043;42.682;23.376;2023-01-20T12:20:41;93493.66;;;7.39;100.00
6030;BME280;3043;42.682;23.376;2023-01-20T12:23:16;93501.34;;;7.16;100.00
6030;BME280;3043;42.682;23.376;2023-01-20T12:26:05;93495.00;;;7.26;100.00
6030;BME280;3043;42.682;23.376;2023-01-20T12:28:41;93503.50;;;7.28;100.00
6030;BME280;3043;42.682;23.376;2023-01-20T12:31:10;93512.13;;;7.27;100.00
6030;BME280;3043;42.682;23.376;2023-01-20T12:33:39;93519.41;;;7.39;100.00
6030;BME280;3043;42.682;23.376;2023-01-20T12:51:05;93584.03;;;6.00;100.00
6030;BME280;3043;42.682;23.376;2023-01-20T12:56:17;93577.88;;;5.45;100.00
6030;BME280;3043;42.682;23.376;2023-01-20T13:01:50;93582.91;;;5.19;100.00
6030;BME280;3043;42.682;23.376;2023-01-20T13:09:34;93590.50;;;4.90;100.00
6030;BME280;3043;42.682;23.376;2023-01-20T13:14:46;93592.38;;;4.84;100.00
6030;BME280;3043;42.682;23.376;2023-01-20T13:17:34;93583.59;;;4.92;100.00
6030;BME280;3043;42.682;23.376;2023-01-20T13:20:03;93573.34;;;4.92;100.00
6030;BME280;3043;42.682;23.376;2023-01-20T13:22:29;93587.75;;;4.98;100.00
6030;BME280;3043;42.682;23.376;2023-01-20T13:24:57;93609.53;;;4.80;100.00
6030;BME280;3043;42.682;23.376;2023-01-20T13:27:32;93602.88;;;4.73;100.00
6030;BME280;3043;42.682;23.376;2023-01-20T13:30:00;93601.75;;;4.83;100.00
6030;BME280;3043;42.682;23.376;2023-01-20T13:34:54;93603.84;;;4.69;100.00
6030;BME280;3043;42.682;23.376;2023-01-20T13:37:24;93608.16;;;4.67;100.00
6030;BME280;3043;42.682;23.376;2023-01-20T13:39:52;93616.38;;;4.81;100.00
6030;BME280;3043;42.682;23.376;2023-01-20T13:47:58;93634.78;;;4.95;100.00
6030;BME280;3043;42.682;23.376;2023-01-20T13:50:37;93642.53;;;4.92;100.00
6030;BME280;3043;42.682;23.376;2023-01-20T13:58:18;93660.25;;;5.01;100.00
6030;BME280;3043;42.682;23.376;2023-01-20T14:00:46;93676.25;;;4.77;100.00
6030;BME280;3043;42.682;23.376;2023-01-20T14:06:06;93683.50;;;4.95;100.00
6030;BME280;3043;42.682;23.376;2023-01-20T14:08:42;93687.84;;;4.93;100.00
6030;BME280;3043;42.682;23.376;2023-01-20T14:11:14;93710.00;;;4.94;100.00
6030;BME280;3043;42.682;23.376;2023-01-20T14:13:56;93705.63;;;4.99;100.00
6030;BME280;3043;42.682;23.376;2023-01-20T14:16:26;93703.47;;;5.18;100.00
6030;BME280;3043;42.682;23.376;2023-01-20T14:18:54;93721.38;;;5.19;100.00
6030;BME280;3043;42.682;23.376;2023-01-20T14:21:23;93719.03;;;5.09;100.00
6030;BME280;3043;42.682;23.376;2023-01-20T14:23:49;93712.41;;;5.02;100.00
6030;BME280;3043;42.682;23.376;2023-01-20T14:26:28;93713.03;;;5.11;100.00
6030;BME280;3043;42.682;23.376;2023-01-20T14:28:56;93702.47;;;5.23;100.00
6030;BME280;3043;42.682;23.376;2023-01-20T14:31:33;93701.25;;;5.36;100.00
6030;BME280;3043;42.682;23.376;2023-01-20T14:36:45;93722.66;;;5.35;100.00
6030;BME280;3043;42.682;23.376;2023-01-20T14:39:18;93722.94;;;5.59;100.00
6030;BME280;3043;42.682;23.376;2023-01-20T14:41:50;93718.97;;;5.45;100.00
6030;BME280;3043;42.682;23.376;2023-01-20T14:44:24;93725.56;;;5.56;100.00
6030;BME280;3043;42.682;23.376;2023-01-20T14:46:53;93717.00;;;5.57;100.00
6030;BME280;3043;42.682;23.376;2023-01-20T14:49:21;93716.91;;;5.60;100.00
6030;BME280;3043;42.682;23.376;2023-01-20T14:51:48;93729.94;;;5.52;100.00
6030;BME280;3043;42.682;23.376;2023-01-20T14:54:49;93739.88;;;5.30;100.00
6030;BME280;3043;42.682;23.376;2023-01-20T15:00:31;93753.22;;;5.09;100.00
6030;BME280;3043;42.682;23.376;2023-01-20T15:05:41;93760.72;;;4.82;100.00
6030;BME280;3043;42.682;23.376;2023-01-20T15:08:24;93772.72;;;4.81;100.00
6030;BME280;3043;42.682;23.376;2023-01-20T15:16:44;93796.09;;;4.66;100.00
6030;BME280;3043;42.682;23.376;2023-01-20T15:21:42;93803.09;;;4.58;100.00
6030;BME280;3043;42.682;23.376;2023-01-20T15:24:23;93816.59;;;4.66;100.00
6030;BME280;3043;42.682;23.376;2023-01-20T15:26:52;93820.47;;;4.44;100.00
6030;BME280;3043;42.682;23.376;2023-01-20T15:29:29;93830.97;;;4.32;100.00
6030;BME280;3043;42.682;23.376;2023-01-20T15:31:57;93829.53;;;4.19;100.00
6030;BME280;3043;42.682;23.376;2023-01-20T15:34:24;93839.91;;;4.10;100.00
6030;BME280;3043;42.682;23.376;2023-01-20T15:36:51;93840.66;;;4.17;100.00
6030;BME280;3043;42.682;23.376;2023-01-20T15:39:19;93839.81;;;4.16;100.00